Tiempo atmosférico en la estación meteorológica de Noia, A Coruña (128 m.)



Fecha
DESCASC
Temp. máxima en grados centígrados (hora)
DESCASC
Temp. mínima en grados centígrados (hora)
DESCASC
Temp. media en grados centígrados
DESCASC
Racha de viento máxima en m/sg (hora)
DESCASC
Velocidad máxima media en intervalos de 10 minutos(hora)
DESCASC
Precipitaciones diarias en mm
DESCASC
Precipitaciones de 00:00 a 06:00 en mm
DESCASC
Precipitaciones de 06:00 a 12:00 en mm
DESCASC
Precipitaciones de 12:00 a 18:00 en mm
DESCASC
Precipitaciones de 18:00 a 24:00 en mm
DESCASC
13-10-2019 17.4 (02:00) 12.8 (23:50) 15.1 15.28 (05:40) 5.83 (05:40) 40.2 19 1.8 7.8 11.6
12-10-2019 18.7 (16:00) 13.6 (00:00) 16.2 11.39 (23:10) 3.61 (16:00) 0 0 0 0 0
11-10-2019 18.8 (14:30) 10.3 (09:00) 14.5 4.72 (15:50) 1.67 (23:10) 0 0 0 0 0
10-10-2019 21.8 (16:20) 11.1 (00:00) 16.4 4.72 (16:20) 1.94 (12:50) 0 0 0 0 0
09-10-2019 18.9 (14:00) 10.3 (00:00) 14.6 3.89 (15:10) 1.11 (15:00) 0 0 0 0 0
08-10-2019 18.9 (15:00) 12.3 (00:00) 15.6 4.44 (04:00) 2.22 (04:00) 6.8 0.4 6.4 0 0
07-10-2019 20.9 (14:00) 11.3 (00:00) 16.1 3.06 (15:30) 1.11 (01:00) 0.2 0 0 0 0.2
06-10-2019 20.8 (15:40) 14.1 (00:00) 17.4 3.61 (17:00) 1.11 (01:50) 0.4 0.4 0 0 0
05-10-2019 19.5 (13:20) 12 (00:00) 15.8 3.06 (14:40) 1.11 (12:00) 0 0 0 0 0
04-10-2019 19.8 (14:50) 12.9 (00:00) 16.3 4.17 (14:20) 1.11 (18:30) 0.2 0.2 0 0 0
03-10-2019 16.9 (13:30) 11.2 (00:00) 14 6.67 (15:40) 3.06 (14:30) 5.4 0 0 0.4 5
02-10-2019 19.7 (14:20) 13.5 (00:00) 16.6 3.61 (17:10) 1.11 (08:30) 0 0 0 0 0
01-10-2019 20.4 (16:00) 15.4 (00:00) 17.9 8.06 (03:10) 2.5 (02:30) 1.8 1.8 0 0 0
30-09-2019 19.7 (15:40) 17 (00:00) 18.4 5.56 (17:50) 2.22 (08:10) 7.6 2.4 3.8 1.4 0
29-09-2019 17.5 (16:10) 14.6 (00:00) 16.1 9.17 (08:40) 3.89 (09:20) 11.6 0 1.4 4 6.2
28-09-2019 19.4 (16:10) 10.2 (00:00) 14.8 5.83 (17:20) 1.67 (23:30) 0 0 0 0 0
27-09-2019 20.3 (16:10) 13.1 (00:00) 16.7 4.72 (16:10) 1.94 (02:40) 8.6 3 5.6 0 0
26-09-2019 20.2 (12:10) 15.9 (00:00) 18.1 6.11 (15:10) 2.22 (21:10) 0 0 0 0 0
25-09-2019 19.7 (16:30) 14.7 (00:00) 17.2 6.94 (17:40) 1.39 (16:10) 0.2 0.2 0 0 0
24-09-2019 19.6 (16:20) 15.4 (00:00) 17.5 12.78 (01:00) 5.28 (01:00) 15 14.2 0 0 0.8
23-09-2019 17.2 (23:40) 14.8 (00:00) 16 14.17 (21:30) 6.11 (23:20) 10.2 0 0 5.8 4.4
22-09-2019 19.9 (16:00) 14.5 (00:00) 17.2 7.78 (00:20) 2.22 (06:20) 3.4 0.6 2.8 0 0
21-09-2019 18 (18:00) 15.4 (00:00) 16.7 13.89 (12:10) 5 (12:00) 12 0 8 3.2 0.8
20-09-2019 19 (17:30) 14.7 (00:00) 16.8 6.39 (15:00) 2.5 (14:50) 0.2 0 0.2 0 0
19-09-2019 19.5 (16:10) 13.8 (00:00) 16.7 4.72 (17:40) 1.39 (17:20) 0 0 0 0 0
18-09-2019 21.4 (15:20) 14.9 (00:00) 18.1 3.89 (17:00) 1.39 (17:10) 0 0 0 0 0
17-09-2019 27.3 (13:20) 18.2 (00:00) 22.8 3.89 (06:10) 1.67 (06:10) 0 0 0 0 0

Gráficas

Temp. máximas Temp. mínimas Temp. medias Precipitaciones Rachas de viento máximas Velocidades máximas media en intervalos de 10 minutos

Datos horarios

Fecha y hora oficial Temperatura (ºC) Velocidad del viento (km/h) Dirección del viento Racha (km/h) Dirección de racha Precipitación (mm) Presión (hPa) Tendencia (hPa) Humedad (%)
2019-10-16 23:00:00 16.1 4 Sur 15 Sur 5 -- -- 100
2019-10-16 22:00:00 15.9 5 Sur 16 Sur 0.4 -- -- 100
2019-10-16 21:00:00 15.7 6 Sudeste 18 Sur 3.2 -- -- 100
2019-10-16 20:00:00 15.8 9 Sur 24 Sur 4.2 -- -- 100
2019-10-16 19:00:00 15.8 8 Sur 31 Sudoeste 18.6 -- -- 100
2019-10-16 18:00:00 15.5 5 Sudoeste 45 Sur 11.2 -- -- 99
2019-10-16 17:00:00 15.6 21 Sur 51 Sur 2.4 -- -- 98
2019-10-16 16:00:00 15.5 17 Sur 56 Sur 3.6 -- -- 99
2019-10-16 15:00:00 15.6 19 Sur 52 Sudeste 1 -- -- 98
2019-10-16 14:00:00 15.2 16 Sur 43 Sur 5.8 -- -- 99
2019-10-16 13:00:00 15.3 15 Sur 45 Sur 1.4 -- -- 99
2019-10-16 12:00:00 15.3 16 Sur 44 Sur 1 -- -- 99
2019-10-16 11:00:00 15 14 Sur 37 Sur 1 -- -- 99
2019-10-16 10:00:00 15 10 Sur 31 Sur 1 -- -- 98
2019-10-16 09:00:00 15.2 10 Sur 28 Sur 0.8 -- -- 98
2019-10-16 08:00:00 15 6 Sur 27 Sur 1 -- -- 99
2019-10-16 07:00:00 15 8 Sur 28 Oeste 4.4 -- -- 99
2019-10-16 06:00:00 15 9 Sudoeste 25 Sur 5.2 -- -- 99
2019-10-16 05:00:00 14.9 8 Sudoeste 30 Oeste 4.4 -- -- 98
2019-10-16 04:00:00 15 12 Sur 36 Sur 0.4 -- -- 98
2019-10-16 03:00:00 14.7 10 Sur 33 Sur 1.2 -- -- 99
2019-10-16 02:00:00 14.6 8 Sur 23 Sudoeste 2.8 -- -- 99
2019-10-16 01:00:00 14.7 6 Sur 25 Sur 2.6 -- -- 99
2019-10-16 00:00:00 14.7 10 Sur 32 Sudoeste 0.8 -- -- 98
2019-10-15 23:00:00 14.6 12 Sudoeste 33 Sudoeste 1.2 -- -- 97
2019-10-15 22:00:00 14.5 8 Sur 25 Sur 1.4 -- -- 97
2019-10-15 21:00:00 14.5 8 Sudoeste 24 Sudoeste 0.8 -- -- 96
2019-10-15 20:00:00 14.8 11 Sur 30 Sudoeste 0.4 -- -- 93
2019-10-15 19:00:00 14.8 7 Sudoeste 40 Sudoeste 0.2 -- -- 93
2019-10-15 18:00:00 14.4 8 Sudoeste 32 Sudeste 1.8 -- -- 93
2019-10-15 17:00:00 15.5 10 Sur 30 Sur 0.2 -- -- 89
2019-10-15 16:00:00 15.3 10 Sur 28 Sur 0 -- -- 91
2019-10-15 15:00:00 15.9 9 Sur 31 Sudoeste 0 -- -- 84
2019-10-15 14:00:00 15.7 10 Sur 31 Sur 0 -- -- 91
2019-10-15 13:00:00 14.1 4 Sur 29 Sur 0.2 -- -- 96
2019-10-15 12:00:00 14.7 10 Sur 25 Sur 0 -- -- 96
2019-10-15 11:00:00 13.4 10 Sur 22 Sur 0 -- -- 100
2019-10-15 10:00:00 12.3 6 Sudeste 14 Sur 1.6 -- -- 100
2019-10-15 09:00:00 11.5 5 Sudeste 16 Sur 2.4 -- -- 100
2019-10-15 08:00:00 11.4 8 Sudeste 15 Sudeste 0 -- -- 99
2019-10-15 07:00:00 11.1 5 Sudeste 11 Sudeste 0 -- -- 99
2019-10-15 06:00:00 10.8 6 Sudeste 10 Sudeste 0 -- -- 99
2019-10-15 05:00:00 10.4 0 Calma 5 Sudeste 0 -- -- 99
2019-10-15 04:00:00 10.7 3 Sudeste 5 Sudeste 0 -- -- 99
2019-10-15 03:00:00 11.1 2 Sudeste 5 Sudeste 0 -- -- 99
2019-10-15 02:00:00 10.4 0 Calma 4 Sudeste 0 -- -- 98
2019-10-15 01:00:00 10.3 2 Este 5 Sudeste 0 -- -- 97
2019-10-15 00:00:00 10.5 0 Calma 4 Norte 0 -- -- 96
2019-10-14 23:00:00 10.9 3 Sudeste 5 Sudeste 0 -- -- 95
2019-10-14 22:00:00 11.4 0 Calma 3 Sudeste 0 -- -- 93
2019-10-14 21:00:00 11.9 2 Sudoeste 8 Noroeste 0.2 -- -- 92
2019-10-14 20:00:00 12.3 0 Calma 7 Oeste 0 -- -- 87
2019-10-14 19:00:00 13 0 Calma 18 Noroeste 0 -- -- 89
2019-10-14 18:00:00 13.3 3 Noroeste 22 Noroeste 0 -- -- 85
2019-10-14 17:00:00 14 5 Noroeste 22 Noroeste 0 -- -- 84
2019-10-14 16:00:00 14.5 4 Noroeste 17 Norte 0 -- -- 87
2019-10-14 15:00:00 13.9 3 Noroeste 18 Oeste 0.2 -- -- 92
2019-10-14 14:00:00 13.3 3 Oeste 12 Sudoeste 0 -- -- 93
2019-10-14 13:00:00 12.8 4 Noroeste 19 Noroeste 0 -- -- 96
2019-10-14 12:00:00 12.6 0 Calma 23 Oeste 1 -- -- 100
2019-10-14 11:00:00 13 0 Calma 17 Sudoeste 1 -- -- 100
2019-10-14 10:00:00 12.3 4 Sur 18 Sur 2.2 -- -- 100
2019-10-14 09:00:00 12.7 2 Sudoeste 17 Oeste 2.6 -- -- 100
2019-10-14 08:00:00 12.8 4 Sudoeste 27 Sur 7.6 -- -- 100
2019-10-14 07:00:00 12.7 10 Sur 22 Sur 1.2 -- -- 100
2019-10-14 06:00:00 12.8 10 Sur 29 Sur 0 -- -- 100
2019-10-14 05:00:00 12.6 10 Sur 31 Sur 0.2 -- -- 100
2019-10-14 04:00:00 12.5 6 Sur 19 Sur 0 -- -- 100
2019-10-14 03:00:00 12.4 8 Sur 26 Sur 0.6 -- -- 100
2019-10-14 02:00:00 12.3 5 Sudeste 17 Sur 2.8 -- -- 100
2019-10-14 01:00:00 12.6 6 Sudeste 15 Sudeste 0.2 -- -- 100
2019-10-14 00:00:00 12.8 6 Sudeste 12 Sudeste 1 -- -- 100
2019-10-13 23:00:00 13 5 Sudeste 14 Sudeste 1.6 -- -- 100
2019-10-13 22:00:00 13.1 4 Sudeste 12 Sudeste 3.4 -- -- 100
2019-10-13 21:00:00 13.1 0 Calma 6 Sudeste 1.4 -- -- 100
2019-10-13 20:00:00 13.2 0 Calma 4 Nordeste 1.4 -- -- 100
2019-10-13 19:00:00 13.5 0 Calma 2 Oeste 2.8 -- -- 99
2019-10-13 18:00:00 13.7 0 Calma 3 Este 2.4 -- -- 99
2019-10-13 17:00:00 13.9 0 Calma 3 Sur 1.4 -- -- 99
2019-10-13 16:00:00 14 0 Calma 5 Oeste 1 -- -- 99
2019-10-13 15:00:00 14.3 0 Calma 5 Oeste 1.8 -- -- 98
2019-10-13 14:00:00 15 0 Calma 4 Noroeste 1 -- -- 97
2019-10-13 13:00:00 15.2 0 Calma 5 Sur 0.2 -- -- 97
2019-10-13 12:00:00 14.8 3 Sudeste 5 Sudeste 0.2 -- -- 98
2019-10-13 11:00:00 14.4 0 Calma 5 Sudeste 0.6 -- -- 99
2019-10-13 10:00:00 14 0 Calma 4 Sudeste 0 -- -- 99
2019-10-13 09:00:00 13.8 0 Calma 8 Sur 0 -- -- 99
2019-10-13 08:00:00 14.1 3 Oeste 15 Oeste 0.2 -- -- 98
2019-10-13 07:00:00 15.3 3 Sudoeste 49 Sudeste 0.8 -- -- 97
2019-10-13 06:00:00 16.5 16 Sur 55 Sur 6 -- -- 99
2019-10-13 05:00:00 16.1 17 Sur 51 Sur 8.6 -- -- 99
2019-10-13 04:00:00 15.9 13 Sur 48 Sur 2.4 -- -- 97
2019-10-13 03:00:00 16 17 Sur 48 Sur 2 -- -- 95
2019-10-13 02:00:00 17.4 18 Sur 49 Sur 0 -- -- 83
2019-10-13 01:00:00 17 17 Sur 42 Sur 0 -- -- 85
2019-10-13 00:00:00 16.9 9 Sudoeste 41 Sur 0 -- -- 84
2019-10-12 23:00:00 16.9 7 Sudoeste 27 Sudeste 0 -- -- 86
2019-10-12 22:00:00 16.8 6 Sur 26 Sudoeste 0 -- -- 88
2019-10-12 21:00:00 16.8 12 Sur 30 Sur 0 -- -- 89
2019-10-12 20:00:00 16.7 8 Sur 21 Sur 0 -- -- 89
2019-10-12 19:00:00 17.9 6 Sur 19 Sur 0 -- -- 80
2019-10-12 18:00:00 18.3 6 Sur 14 Sur 0 -- -- 78
2019-10-12 17:00:00 18.5 3 Sudoeste 24 Sur 0 -- -- 75
2019-10-12 16:00:00 18.7 13 Sur 32 Sur 0 -- -- 75
2019-10-12 15:00:00 18.4 10 Sur 27 Sur 0 -- -- 76
2019-10-12 14:00:00 18.5 10 Sur 29 Sur 0 -- -- 74
2019-10-12 13:00:00 18.2 9 Sur 26 Sur 0 -- -- 78
2019-10-12 12:00:00 16.7 10 Sur 29 Sur 0 -- -- 85
2019-10-12 11:00:00 16.1 12 Sur 24 Sur 0 -- -- 90
2019-10-12 10:00:00 15.4 7 Sur 17 Sur 0 -- -- 91
2019-10-12 09:00:00 15.2 8 Sur 29 Sur 0 -- -- 92
2019-10-12 08:00:00 15 11 Sur 21 Sudeste 0 -- -- 93
2019-10-12 07:00:00 14.6 6 Sur 16 Sur 0 -- -- 95
2019-10-12 06:00:00 14.5 7 Sur 15 Sur 0 -- -- 95
2019-10-12 05:00:00 14.6 6 Sur 14 Sur 0 -- -- 95
2019-10-12 04:00:00 14.6 7 Sur 13 Sur 0 -- -- 96
2019-10-12 03:00:00 14.5 5 Sur 12 Sur 0 -- -- 96
2019-10-12 02:00:00 14.3 5 Sudeste 12 Sudeste 0 -- -- 95
2019-10-12 01:00:00 13.9 4 Sudeste 10 Sudeste 0 -- -- 96
2019-10-12 00:00:00 13.6 4 Sur 10 Sur 0 -- -- 94
2019-10-11 23:00:00 13.7 5 Sudeste 9 Sur 0 -- -- 92
2019-10-11 22:00:00 14.7 2 Sudeste 5 Sur 0 -- -- 88
2019-10-11 21:00:00 15.1 0 Calma 7 Oeste 0 -- -- 88
2019-10-11 20:00:00 15.7 0 Calma 10 Sudoeste 0 -- -- 87
2019-10-11 19:00:00 16.9 3 Oeste 15 Oeste 0 -- -- 84
2019-10-11 18:00:00 17.5 4 Oeste 15 Oeste 0 -- -- 81
2019-10-11 17:00:00 18.4 4 Oeste 14 Noroeste 0 -- -- 77
2019-10-11 16:00:00 18.4 5 Noroeste 17 Oeste 0 -- -- 77
2019-10-11 15:00:00 18.5 4 Noroeste 15 Noroeste 0 -- -- 77
2019-10-11 14:00:00 18.4 3 Oeste 9 Noroeste 0 -- -- 79
2019-10-11 13:00:00 17.1 2 Noroeste 8 Oeste 0 -- -- 85
2019-10-11 12:00:00 14.8 0 Calma 5 Sur 0 -- -- 97
2019-10-11 11:00:00 12.1 2 Sudeste 5 Sudeste 0 -- -- 100
2019-10-11 10:00:00 10.9 2 Sur 4 Sur 0 -- -- 100
2019-10-11 09:00:00 10.3 0 Calma 3 Sudeste 0 -- -- 99
2019-10-11 08:00:00 10.6 0 Calma 3 Sudeste 0 -- -- 98
2019-10-11 07:00:00 11.2 0 Calma 2 Sur 0 -- -- 98
2019-10-11 06:00:00 11.6 0 Calma 2 Sur 0 -- -- 98
2019-10-11 05:00:00 12.2 0 Calma 4 Sudeste 0 -- -- 98
2019-10-11 04:00:00 12.6 0 Calma 6 Este 0 -- -- 97
2019-10-11 03:00:00 13.1 0 Calma 8 Este 0 -- -- 97
2019-10-11 02:00:00 13.7 4 Nordeste 12 Nordeste 0 -- -- 97
2019-10-11 01:00:00 13.8 3 Nordeste 12 Nordeste 0 -- -- 96
2019-10-11 00:00:00 14.2 4 Nordeste 15 Este 0 -- -- 92
2019-10-10 23:00:00 14.8 4 Nordeste 10 Nordeste 0 -- -- 90
2019-10-10 22:00:00 15.7 3 Nordeste 10 Nordeste 0 -- -- 87
2019-10-10 21:00:00 16.9 3 Nordeste 10 Norte 0 -- -- 84
2019-10-10 20:00:00 18.4 2 Norte 11 Norte 0 -- -- 80
2019-10-10 19:00:00 20.8 2 Norte 9 Este 0 -- -- 69
2019-10-10 18:00:00 21.4 4 Nordeste 13 Nordeste 0 -- -- 63
2019-10-10 17:00:00 21.8 4 Nordeste 17 Nordeste 0 -- -- 61
2019-10-10 16:00:00 21.7 6 Nordeste 16 Sudeste 0 -- -- 61
2019-10-10 15:00:00 20.9 5 Nordeste 14 Sudeste 0 -- -- 65
2019-10-10 14:00:00 20.2 5 Norte 14 Nordeste 0 -- -- 70
2019-10-10 13:00:00 18.8 4 Nordeste 16 Nordeste 0 -- -- 74
2019-10-10 12:00:00 17 3 Norte 13 Noroeste 0 -- -- 82
2019-10-10 11:00:00 13.8 2 Nordeste 8 Sudeste 0 -- -- 94
2019-10-10 10:00:00 12.1 0 Calma 6 Norte 0 -- -- 98
2019-10-10 09:00:00 11.2 2 Nordeste 8 Nordeste 0 -- -- 97
2019-10-10 08:00:00 11.4 3 Nordeste 9 Este 0 -- -- 97
2019-10-10 07:00:00 11.2 0 Calma 8 Nordeste 0 -- -- 97
2019-10-10 06:00:00 11.4 2 Nordeste 6 Este 0 -- -- 98
2019-10-10 05:00:00 11.2 0 Calma 5 Este 0 -- -- 98
2019-10-10 04:00:00 11.2 0 Calma 4 Sudeste 0 -- -- 98
2019-10-10 03:00:00 11.5 0 Calma 4 Sudeste 0 -- -- 96
2019-10-10 02:00:00 11.7 0 Calma 3 Nordeste 0 -- -- 95
2019-10-10 01:00:00 12.2 0 Calma 9 Norte 0 -- -- 92
2019-10-10 00:00:00 12.4 2 Este 6 Nordeste 0 -- -- 93
2019-10-09 23:00:00 12.7 0 Calma 6 Nordeste 0 -- -- 91
2019-10-09 22:00:00 13.3 2 Este 6 Este 0 -- -- 88
2019-10-09 21:00:00 14.1 0 Calma 9 Norte 0 -- -- 85
2019-10-09 20:00:00 15.3 0 Calma 9 Oeste 0 -- -- 81
2019-10-09 19:00:00 16.8 2 Noroeste 8 Norte 0 -- -- 78
2019-10-09 18:00:00 17.9 2 Noroeste 13 Noroeste 0 -- -- 69
2019-10-09 17:00:00 18.5 2 Noroeste 10 Oeste 0 -- -- 74
2019-10-09 16:00:00 18.7 3 Oeste 14 Oeste 0 -- -- 71
2019-10-09 15:00:00 18 4 Noroeste 14 Noroeste 0 -- -- 74
2019-10-09 14:00:00 18.9 4 Noroeste 11 Sudeste 0 -- -- 65
2019-10-09 13:00:00 18.5 0 Calma 7 Este 0 -- -- 74
2019-10-09 12:00:00 15.9 0 Calma 5 Sur 0 -- -- 91
2019-10-09 11:00:00 12.6 0 Calma 5 Sudeste 0 -- -- 100
2019-10-09 10:00:00 10.9 0 Calma 3 Sur 0 -- -- 100
2019-10-09 09:00:00 10.3 0 Calma 4 Sudeste 0 -- -- 100
2019-10-09 08:00:00 10.6 0 Calma 5 Este 0 -- -- 100
2019-10-09 07:00:00 10.5 0 Calma 3 Sudeste 0 -- -- 100
2019-10-09 06:00:00 10.9 0 Calma 3 Este 0 -- -- 100
2019-10-09 05:00:00 10.9 0 Calma 3 Nordeste 0 -- -- 100
2019-10-09 04:00:00 11 0 Calma 4 Sudeste 0 -- -- 99
2019-10-09 03:00:00 11.3 0 Calma 3 Nordeste 0 -- -- 99
2019-10-09 02:00:00 11.5 2 Este 2 Este 0 -- -- 98
2019-10-09 01:00:00 11.9 0 Calma 3 Este 0 -- -- 98
2019-10-09 00:00:00 12.3 2 Nordeste 4 Norte 0 -- -- 97
2019-10-08 23:00:00 12.7 0 Calma 2 Sudeste 0 -- -- 95
2019-10-08 22:00:00 13.4 0 Calma 5 Nordeste 0 -- -- 93
2019-10-08 21:00:00 14.1 0 Calma 6 Nordeste 0 -- -- 89
2019-10-08 20:00:00 15 2 Noroeste 12 Oeste 0 -- -- 85
2019-10-08 19:00:00 16.3 3 Noroeste 14 Noroeste 0 -- -- 86
2019-10-08 18:00:00 17.9 3 Nordeste 12 Nordeste 0 -- -- 76
2019-10-08 17:00:00 17.6 3 Nordeste 15 Nordeste 0 -- -- 83
2019-10-08 16:00:00 17.6 3 Nordeste 12 Nordeste 0 -- -- 87
2019-10-08 15:00:00 18.9 3 Noroeste 12 Oeste 0 -- -- 88
2019-10-08 14:00:00 17.7 3 Noroeste 14 Norte 0 -- -- 94
2019-10-08 13:00:00 17 3 Noroeste 15 Norte 0 -- -- 100
2019-10-08 12:00:00 17.1 3 Noroeste 13 Nordeste 0.6 -- -- 100
2019-10-08 11:00:00 18.2 2 Noroeste 12 Noroeste 1.4 -- -- 100
2019-10-08 10:00:00 18 3 Sur 7 Sur 1.4 -- -- 100
2019-10-08 09:00:00 17.8 3 Sudeste 6 Sudeste 1.8 -- -- 100
2019-10-08 08:00:00 17.5 4 Sudeste 5 Sudeste 0.4 -- -- 100
2019-10-08 07:00:00 17.3 0 Calma 6 Noroeste 0.8 -- -- 100
2019-10-08 06:00:00 17.3 0 Calma 8 Sudeste 0.2 -- -- 100
2019-10-08 05:00:00 17.7 5 Sudeste 10 Sur 0 -- -- 100
2019-10-08 04:00:00 17.7 8 Sudeste 16 Sudeste 0 -- -- 100
2019-10-08 03:00:00 17.7 4 Sudeste 10 Sudeste 0.2 -- -- 99
2019-10-08 02:00:00 17.8 0 Calma 3 Sur 0 -- -- 99
2019-10-08 01:00:00 17.7 4 Sudeste 7 Sudeste 0 -- -- 98
2019-10-08 00:00:00 18 0 Calma 3 Sur 0.2 -- -- 97
2019-10-07 23:00:00 18.1 0 Calma 4 Nordeste 0 -- -- 95
2019-10-07 22:00:00 18.2 0 Calma 4 Oeste 0 -- -- 94
2019-10-07 21:00:00 18.4 0 Calma 4 Este 0 -- -- 93
2019-10-07 20:00:00 18.6 0 Calma 3 Noroeste 0 -- -- 91
2019-10-07 19:00:00 18.7 0 Calma 4 Noroeste 0 -- -- 88
2019-10-07 18:00:00 18.8 2 Noroeste 9 Noroeste 0 -- -- 84
2019-10-07 17:00:00 19.5 0 Calma 6 Noroeste 0 -- -- 82
2019-10-07 16:00:00 20.4 0 Calma 11 Oeste 0 -- -- 79
2019-10-07 15:00:00 20.2 3 Noroeste 10 Oeste 0 -- -- 73
2019-10-07 14:00:00 20.9 2 Noroeste 8 Oeste 0 -- -- 67
2019-10-07 13:00:00 20.1 2 Noroeste 5 Oeste 0 -- -- 76
2019-10-07 12:00:00 17.9 0 Calma 6 Este 0 -- -- 88
2019-10-07 11:00:00 14 0 Calma 3 Sur 0 -- -- 99
2019-10-07 10:00:00 12.7 2 Este 6 Sudeste 0 -- -- 100
2019-10-07 09:00:00 11.3 0 Calma 3 Sudeste 0 -- -- 99
2019-10-07 08:00:00 11.6 0 Calma 4 Sudeste 0 -- -- 99
2019-10-07 07:00:00 11.7 0 Calma 3 Sudeste 0 -- -- 98
2019-10-07 06:00:00 12 0 Calma 2 Este 0 -- -- 98
2019-10-07 05:00:00 12.2 0 Calma 7 Sudeste 0 -- -- 98
2019-10-07 04:00:00 12.3 0 Calma 2 Este 0 -- -- 97
2019-10-07 03:00:00 12.7 0 Calma 4 Noroeste 0 -- -- 96
2019-10-07 02:00:00 13.2 0 Calma 6 Nordeste 0 -- -- 95
2019-10-07 01:00:00 14 4 Nordeste 7 Este 0 -- -- 93
2019-10-07 00:00:00 14.3 2 Sudeste 6 Sudeste 0 -- -- 93
2019-10-06 23:00:00 14.7 0 Calma 3 Nordeste 0 -- -- 94
2019-10-06 22:00:00 15.2 0 Calma 5 Nordeste 0 -- -- 92
2019-10-06 21:00:00 16.1 0 Calma 6 Nordeste 0 -- -- 90
2019-10-06 20:00:00 16.9 0 Calma 6 Oeste 0 -- -- 86
2019-10-06 19:00:00 18.1 2 Norte 13 Noroeste 0 -- -- 82
2019-10-06 18:00:00 18.8 4 Noroeste 13 Norte 0 -- -- 79
2019-10-06 17:00:00 19.8 3 Noroeste 13 Oeste 0 -- -- 78
2019-10-06 16:00:00 20.7 3 Noroeste 10 Oeste 0 -- -- 75
2019-10-06 15:00:00 20.1 2 Sudoeste 11 Sudeste 0 -- -- 70
2019-10-06 14:00:00 20.3 3 Sudoeste 10 Sur 0 -- -- 74
2019-10-06 13:00:00 18.9 3 Noroeste 8 Noroeste 0 -- -- 82
2019-10-06 12:00:00 17.1 0 Calma 6 Nordeste 0 -- -- 90
2019-10-06 11:00:00 15.6 2 Noroeste 6 Nordeste 0 -- -- 99
2019-10-06 10:00:00 14.9 0 Calma 6 Nordeste 0 -- -- 100
2019-10-06 09:00:00 14.5 2 Nordeste 5 Nordeste 0 -- -- 99
2019-10-06 08:00:00 14.5 0 Calma 4 Nordeste 0 -- -- 100
2019-10-06 07:00:00 14.4 0 Calma 4 Sudeste 0 -- -- 99
2019-10-06 06:00:00 14.2 0 Calma 4 Sur 0 -- -- 98
2019-10-06 05:00:00 14.3 0 Calma 2 Sudeste 0.2 -- -- 97
2019-10-06 04:00:00 14.4 2 Sudeste 4 Este 0.2 -- -- 96
2019-10-06 03:00:00 14.8 0 Calma 4 Sur 0 -- -- 91
2019-10-06 02:00:00 14.4 0 Calma 6 Sudeste 0 -- -- 92
2019-10-06 01:00:00 14.1 0 Calma 4 Sudeste 0 -- -- 93
2019-10-06 00:00:00 14.2 0 Calma 3 Sudeste 0 -- -- 93
2019-10-05 23:00:00 14.1 0 Calma 4 Nordeste 0 -- -- 92
2019-10-05 22:00:00 14.4 2 Este 6 Sudeste 0 -- -- 88
2019-10-05 21:00:00 14.8 0 Calma 3 Sur 0 -- -- 86
2019-10-05 20:00:00 16 0 Calma 8 Oeste 0 -- -- 86
2019-10-05 19:00:00 17 0 Calma 6 Oeste 0 -- -- 77
2019-10-05 18:00:00 17.4 0 Calma 8 Norte 0 -- -- 80
2019-10-05 17:00:00 18 3 Noroeste 11 Noroeste 0 -- -- 77
2019-10-05 16:00:00 18.1 0 Calma 9 Oeste 0 -- -- 77
2019-10-05 15:00:00 17.8 2 Noroeste 11 Noroeste 0 -- -- 78
2019-10-05 14:00:00 19 0 Calma 7 Sudeste 0 -- -- 69
2019-10-05 13:00:00 19.1 2 Noroeste 9 Sudoeste 0 -- -- 72
2019-10-05 12:00:00 16.9 4 Sudeste 8 Sur 0 -- -- 83
2019-10-05 11:00:00 14.2 0 Calma 3 Sur 0 -- -- 97
2019-10-05 10:00:00 12.4 0 Calma 3 Sudeste 0 -- -- 97
2019-10-05 09:00:00 12.4 0 Calma 3 Sudeste 0 -- -- 94
2019-10-05 08:00:00 13 2 Sudeste 5 Este 0 -- -- 95
2019-10-05 07:00:00 13 0 Calma 2 Oeste 0 -- -- 95
2019-10-05 06:00:00 13.2 2 Sudeste 3 Sudeste 0 -- -- 94
2019-10-05 05:00:00 13.3 0 Calma 2 Este 0 -- -- 93
2019-10-05 04:00:00 13.4 0 Calma 4 Este 0 -- -- 93
2019-10-05 03:00:00 13.3 2 Sudeste 3 Sudeste 0 -- -- 94
2019-10-05 02:00:00 12.9 0 Calma 3 Este 0 -- -- 96
2019-10-05 01:00:00 12.3 0 Calma 6 Nordeste 0 -- -- 95
2019-10-05 00:00:00 12.9 0 Calma 5 Norte 0 -- -- 94
2019-10-04 23:00:00 13.5 0 Calma 4 Nordeste 0 -- -- 94
2019-10-04 22:00:00 14.1 0 Calma 5 Nordeste 0 -- -- 92
2019-10-04 21:00:00 15 3 Nordeste 5 Nordeste 0 -- -- 89
2019-10-04 20:00:00 16.5 2 Nordeste 6 Noroeste 0 -- -- 84
2019-10-04 19:00:00 17.6 2 Norte 12 Oeste 0 -- -- 76
2019-10-04 18:00:00 18.5 2 Noroeste 10 Sudoeste 0 -- -- 75
2019-10-04 17:00:00 18.9 2 Noroeste 9 Noroeste 0 -- -- 78
2019-10-04 16:00:00 18.6 0 Calma 12 Noroeste 0 -- -- 83
2019-10-04 15:00:00 19.4 3 Noroeste 15 Oeste 0 -- -- 79
2019-10-04 14:00:00 19.4 2 Oeste 8 Noroeste 0 -- -- 81
2019-10-04 13:00:00 18.6 0 Calma 5 Oeste 0 -- -- 91
2019-10-04 12:00:00 17.3 0 Calma 7 Nordeste 0 -- -- 98
2019-10-04 11:00:00 16.2 0 Calma 5 Nordeste 0 -- -- 100
2019-10-04 10:00:00 15.5 0 Calma 3 Nordeste 0 -- -- 100
2019-10-04 09:00:00 15.2 0 Calma 2 Sudeste 0 -- -- 100
2019-10-04 08:00:00 15.3 0 Calma 5 Nordeste 0 -- -- 100
2019-10-04 07:00:00 15.4 0 Calma 3 Este 0 -- -- 100
2019-10-04 06:00:00 15.6 0 Calma 4 Sudeste 0 -- -- 100
2019-10-04 05:00:00 15.8 0 Calma 3 Sudeste 0 -- -- 100
2019-10-04 04:00:00 15.8 0 Calma 4 Este 0 -- -- 100
2019-10-04 03:00:00 16 0 Calma 3 Sudeste 0.2 -- -- 100
2019-10-04 02:00:00 15.9 2 Este 5 Nordeste 0 -- -- 100
2019-10-04 01:00:00 16 0 Calma 5 Sudeste 0 -- -- 100
2019-10-04 00:00:00 16 4 Sudeste 10 Sudeste 0 -- -- 100
2019-10-03 23:00:00 15.9 0 Calma 9 Sudeste 0 -- -- 100
2019-10-03 22:00:00 15.7 5 Sudeste 10 Sudeste 1 -- -- 100
2019-10-03 21:00:00 15.6 5 Sudeste 9 Sudeste 0.8 -- -- 100
2019-10-03 20:00:00 15.5 5 Sudeste 11 Sudeste 1.4 -- -- 99
2019-10-03 19:00:00 15.6 5 Sudeste 14 Sur 1.8 -- -- 98
2019-10-03 18:00:00 15.8 7 Sur 23 Sur 0.4 -- -- 95
2019-10-03 17:00:00 16.2 9 Sudeste 23 Sudeste 0 -- -- 90
2019-10-03 16:00:00 16.7 8 Sur 24 Sur 0 -- -- 86
2019-10-03 15:00:00 16.8 8 Sur 21 Sur 0 -- -- 84
2019-10-03 14:00:00 16.7 10 Sur 21 Sudeste 0 -- -- 85
2019-10-03 13:00:00 16.4 5 Sur 15 Sur 0 -- -- 88
2019-10-03 12:00:00 15.8 5 Sur 11 Sur 0 -- -- 93
2019-10-03 11:00:00 14.4 7 Sur 16 Sur 0 -- -- 100
2019-10-03 10:00:00 13.4 6 Sudeste 11 Sudeste 0 -- -- 100
2019-10-03 09:00:00 12.4 6 Sudeste 13 Sudeste 0 -- -- 100
2019-10-03 08:00:00 11.9 5 Sudeste 11 Sudeste 0 -- -- 99
2019-10-03 07:00:00 11.7 5 Sudeste 10 Sudeste 0 -- -- 99
2019-10-03 06:00:00 11.3 0 Calma 5 Sudeste 0 -- -- 98
2019-10-03 05:00:00 11.6 0 Calma 3 Sudeste 0 -- -- 97
2019-10-03 04:00:00 11.9 0 Calma 2 Nordeste 0 -- -- 96
2019-10-03 03:00:00 12.6 2 Sudeste 5 Este 0 -- -- 95
2019-10-03 02:00:00 13.3 3 Este 9 Nordeste 0 -- -- 94
2019-10-03 01:00:00 13.4 4 Nordeste 8 Nordeste 0 -- -- 94
2019-10-03 00:00:00 13.5 2 Este 9 Este 0 -- -- 94
2019-10-02 23:00:00 13.9 2 Este 6 Este 0 -- -- 92
2019-10-02 22:00:00 14.4 2 Nordeste 6 Nordeste 0 -- -- 91
2019-10-02 21:00:00 15.1 2 Nordeste 4 Nordeste 0 -- -- 87
2019-10-02 20:00:00 17.1 0 Calma 6 Noroeste 0 -- -- 76
2019-10-02 19:00:00 18.1 2 Noroeste 9 Oeste 0 -- -- 77
2019-10-02 18:00:00 18.5 3 Noroeste 13 Noroeste 0 -- -- 76
2019-10-02 17:00:00 19.2 3 Noroeste 9 Noroeste 0 -- -- 76
2019-10-02 16:00:00 18.9 0 Calma 12 Oeste 0 -- -- 74
2019-10-02 15:00:00 18.9 3 Noroeste 10 Oeste 0 -- -- 74
2019-10-02 14:00:00 19.1 0 Calma 6 Oeste 0 -- -- 76
2019-10-02 13:00:00 18.2 0 Calma 8 Sudoeste 0 -- -- 73
2019-10-02 12:00:00 16.6 0 Calma 3 Oeste 0 -- -- 92
2019-10-02 11:00:00 15.4 2 Sur 5 Este 0 -- -- 99
2019-10-02 10:00:00 14.4 0 Calma 5 Nordeste 0 -- -- 99
2019-10-02 09:00:00 13.7 0 Calma 7 Sudeste 0 -- -- 100
2019-10-02 08:00:00 13.7 0 Calma 2 Sudeste 0 -- -- 100
2019-10-02 07:00:00 13.8 0 Calma 2 Este 0 -- -- 100
2019-10-02 06:00:00 13.8 0 Calma 2 Sudeste 0 -- -- 100
2019-10-02 05:00:00 13.8 3 Sudeste 5 Sudeste 0 -- -- 99
2019-10-02 04:00:00 13.5 0 Calma 4 Este 0 -- -- 99
2019-10-02 03:00:00 13.9 2 Este 3 Este 0 -- -- 97
2019-10-02 02:00:00 14.9 0 Calma 3 Nordeste 0 -- -- 98
2019-10-02 01:00:00 15 0 Calma 3 Nordeste 0 -- -- 97
2019-10-02 00:00:00 15.4 0 Calma 3 Sudeste 0 -- -- 96
2019-10-01 23:00:00 15.8 0 Calma 3 Este 0 -- -- 96
2019-10-01 22:00:00 16.3 0 Calma 7 Oeste 0 -- -- 94
2019-10-01 21:00:00 16.6 0 Calma 8 Oeste 0 -- -- 93
2019-10-01 20:00:00 17.3 0 Calma 12 Noroeste 0 -- -- 91
2019-10-01 19:00:00 17.8 3 Noroeste 11 Oeste 0 -- -- 89
2019-10-01 18:00:00 18.3 3 Oeste 22 Oeste 0 -- -- 85
2019-10-01 17:00:00 19.2 3 Noroeste 17 Noroeste 0 -- -- 81
2019-10-01 16:00:00 20.4 4 Oeste 22 Oeste 0 -- -- 83
2019-10-01 15:00:00 19.5 4 Oeste 21 Noroeste 0 -- -- 82
2019-10-01 14:00:00 19.5 4 Noroeste 15 Norte 0 -- -- 86
2019-10-01 13:00:00 19.1 4 Noroeste 17 Noroeste 0 -- -- 89
2019-10-01 12:00:00 19.1 5 Oeste 18 Noroeste 0 -- -- 96
2019-10-01 11:00:00 17.4 2 Noroeste 18 Oeste 0 -- -- 100
2019-10-01 10:00:00 17.2 3 Noroeste 11 Oeste 0 -- -- 100
2019-10-01 09:00:00 16.8 2 Noroeste 13 Noroeste 0 -- -- 100
2019-10-01 08:00:00 17 3 Noroeste 10 Sudoeste 0 -- -- 100
2019-10-01 07:00:00 17.2 0 Calma 14 Noroeste 0 -- -- 100
2019-10-01 06:00:00 17.5 3 Noroeste 15 Oeste 0 -- -- 100
2019-10-01 05:00:00 17.7 4 Noroeste 20 Oeste 0 -- -- 99
2019-10-01 04:00:00 17.8 3 Noroeste 29 Sudoeste 0 -- -- 98
2019-10-01 03:00:00 17.8 5 Sudoeste 27 Sudoeste 0.8 -- -- 98
2019-10-01 02:00:00 17.4 8 Sur 16 Sur 1 -- -- 97
2019-10-01 01:00:00 17.7 2 Sudeste 15 Sur 0 -- -- 95
2019-10-01 00:00:00 17.8 3 Sudeste 13 Sudeste 0 -- -- 96
2019-09-30 23:00:00 17.8 6 Sur 15 Sur 0 -- -- 95
2019-09-30 22:00:00 18 8 Sur 15 Sur 0 -- -- 94
2019-09-30 21:00:00 18.4 6 Sur 12 Sur 0 -- -- 90
2019-09-30 20:00:00 18.8 4 Sudoeste 17 Sudoeste 0 -- -- 85
2019-09-30 19:00:00 19.1 4 Oeste 17 Oeste 0 -- -- 88
2019-09-30 18:00:00 19.1 4 Sudoeste 20 Oeste 0 -- -- 94
2019-09-30 17:00:00 19.5 2 Noroeste 14 Oeste 0 -- -- 99
2019-09-30 16:00:00 19.6 3 Oeste 13 Oeste 0 -- -- 100
2019-09-30 15:00:00 19 3 Oeste 14 Oeste 0.2 -- -- 100
2019-09-30 14:00:00 18.6 2 Noroeste 13 Oeste 0.6 -- -- 100
2019-09-30 13:00:00 18.7 0 Calma 14 Sudeste 0.6 -- -- 100
2019-09-30 12:00:00 18.2 4 Sur 13 Sudeste 1.2 -- -- 100
2019-09-30 11:00:00 18.1 6 Sur 16 Sudeste 0 -- -- 100
2019-09-30 10:00:00 17.7 7 Sudeste 16 Sur 0.6 -- -- 100
2019-09-30 09:00:00 17.6 6 Sur 15 Sur 0.8 -- -- 100
2019-09-30 08:00:00 17.8 6 Sur 11 Sudeste 1 -- -- 100
2019-09-30 07:00:00 17.9 5 Sudeste 12 Sur 0.2 -- -- 100
2019-09-30 06:00:00 17.7 0 Calma 9 Sur 0 -- -- 100
2019-09-30 05:00:00 17.6 5 Sudeste 13 Sur 0 -- -- 100
2019-09-30 04:00:00 17.3 6 Sudeste 12 Sudeste 0.2 -- -- 100
2019-09-30 03:00:00 17.1 5 Sudeste 13 Sudeste 0.6 -- -- 100
2019-09-30 02:00:00 17 6 Sudeste 14 Sur 0.8 -- -- 100
2019-09-30 01:00:00 17 6 Sur 11 Sur 0.8 -- -- 100
2019-09-30 00:00:00 17 6 Sudeste 12 Sudeste 0.4 -- -- 100
2019-09-29 23:00:00 17 5 Sudeste 13 Sur 0.6 -- -- 100
2019-09-29 22:00:00 17 6 Sur 14 Sur 1 -- -- 100
2019-09-29 21:00:00 17.2 4 Sudeste 11 Sur 0.8 -- -- 100
2019-09-29 20:00:00 17.3 4 Sudeste 12 Sur 2 -- -- 100
2019-09-29 19:00:00 17.3 7 Sudeste 17 Sur 1.4 -- -- 100
2019-09-29 18:00:00 17.3 6 Sur 22 Sur 0.4 -- -- 100
2019-09-29 17:00:00 17.4 8 Sudeste 15 Sudeste 0.2 -- -- 99
2019-09-29 16:00:00 17.4 5 Sur 18 Sur 0.4 -- -- 100
2019-09-29 15:00:00 17.3 4 Sur 15 Sudeste 0.6 -- -- 99
2019-09-29 14:00:00 17.1 5 Sur 18 Sur 1 -- -- 99
2019-09-29 13:00:00 17.1 5 Sur 31 Sudeste 1.4 -- -- 98
2019-09-29 12:00:00 17 9 Sur 28 Sur 0.8 -- -- 97
2019-09-29 11:00:00 17 14 Sur 32 Sur 0.4 -- -- 97
2019-09-29 10:00:00 16.5 9 Sudeste 28 Sur 0.2 -- -- 98
2019-09-29 09:00:00 16.3 12 Sur 33 Sur 0 -- -- 98
2019-09-29 08:00:00 15.7 11 Sur 29 Sur 0 -- -- 98
2019-09-29 07:00:00 15.4 13 Sur 27 Sur 0 -- -- 98
2019-09-29 06:00:00 14.9 13 Sur 23 Sur 0 -- -- 97
2019-09-29 05:00:00 15 10 Sur 22 Sur 0 -- -- 94
2019-09-29 04:00:00 15.1 9 Sur 21 Sur 0 -- -- 92
2019-09-29 03:00:00 15.2 10 Sur 19 Sur 0 -- -- 92
2019-09-29 02:00:00 14.9 6 Sudeste 13 Sudeste 0 -- -- 95
2019-09-29 01:00:00 14.7 8 Sur 14 Sur 0 -- -- 95
2019-09-29 00:00:00 14.6 5 Sudeste 11 Sur 0 -- -- 95
2019-09-28 23:00:00 14.3 5 Sudeste 10 Sudeste 0 -- -- 94
2019-09-28 22:00:00 14.5 4 Sudeste 8 Sur 0 -- -- 91
2019-09-28 21:00:00 15.1 0 Calma 8 Noroeste 0 -- -- 90
2019-09-28 20:00:00 16 3 Oeste 12 Sudoeste 0 -- -- 83
2019-09-28 19:00:00 17 3 Noroeste 17 Oeste 0 -- -- 79
2019-09-28 18:00:00 17.7 3 Noroeste 21 Noroeste 0 -- -- 78
2019-09-28 17:00:00 18.7 3 Noroeste 14 Oeste 0 -- -- 73
2019-09-28 16:00:00 19.3 5 Noroeste 19 Oeste 0 -- -- 68
2019-09-28 15:00:00 19.1 3 Noroeste 12 Noroeste 0 -- -- 71
2019-09-28 14:00:00 19.3 3 Noroeste 10 Oeste 0 -- -- 70
2019-09-28 13:00:00 18.7 3 Noroeste 9 Noroeste 0 -- -- 73
2019-09-28 12:00:00 17.5 0 Calma 5 Sudeste 0 -- -- 83
2019-09-28 11:00:00 13.4 2 Sur 4 Sur 0 -- -- 97
2019-09-28 10:00:00 11.1 0 Calma 8 Nordeste 0 -- -- 99
2019-09-28 09:00:00 10.2 0 Calma 4 Nordeste 0 -- -- 99
2019-09-28 08:00:00 10.2 0 Calma 4 Sudeste 0 -- -- 98
2019-09-28 07:00:00 10.6 0 Calma 2 Este 0 -- -- 98
2019-09-28 06:00:00 10.8 0 Calma 6 Este 0 -- -- 98
2019-09-28 05:00:00 11 2 Este 5 Este 0 -- -- 98
2019-09-28 04:00:00 11.3 0 Calma 2 Este 0 -- -- 98
2019-09-28 03:00:00 11.8 2 Sudeste 3 Sudeste 0 -- -- 97
2019-09-28 02:00:00 12.1 0 Calma 3 Nordeste 0 -- -- 97
2019-09-28 01:00:00 12.7 0 Calma 2 Este 0 -- -- 97
2019-09-28 00:00:00 13.1 0 Calma 3 Este 0 -- -- 96
2019-09-27 23:00:00 13.7 0 Calma 3 Nordeste 0 -- -- 94
2019-09-27 22:00:00 14.4 2 Este 3 Este 0 -- -- 92
2019-09-27 21:00:00 16.1 0 Calma 6 Oeste 0 -- -- 88
2019-09-27 20:00:00 17.6 2 Sudoeste 9 Oeste 0 -- -- 81
2019-09-27 19:00:00 18.3 3 Oeste 12 Norte 0 -- -- 79
2019-09-27 18:00:00 18.9 3 Oeste 14 Oeste 0 -- -- 75
2019-09-27 17:00:00 19.8 4 Oeste 17 Oeste 0 -- -- 79
2019-09-27 16:00:00 20.1 4 Noroeste 16 Oeste 0 -- -- 78
2019-09-27 15:00:00 19.9 4 Oeste 11 Oeste 0 -- -- 81
2019-09-27 14:00:00 19 2 Noroeste 10 Oeste 0 -- -- 91
2019-09-27 13:00:00 17.5 0 Calma 12 Noroeste 0 -- -- 100
2019-09-27 12:00:00 17.3 0 Calma 9 Noroeste 0 -- -- 100
2019-09-27 11:00:00 17.3 2 Oeste 9 Noroeste 0.2 -- -- 100
2019-09-27 10:00:00 17.2 3 Noroeste 13 Oeste 1.2 -- -- 100
2019-09-27 09:00:00 16.7 2 Sur 10 Sur 1.6 -- -- 100
2019-09-27 08:00:00 17 2 Sudeste 9 Oeste 1 -- -- 100
2019-09-27 07:00:00 17 3 Oeste 8 Norte 1.6 -- -- 100
2019-09-27 06:00:00 17.1 3 Sur 15 Oeste 1.4 -- -- 100
2019-09-27 05:00:00 16.6 5 Sur 14 Sur 1.6 -- -- 99
2019-09-27 04:00:00 16.7 6 Sur 16 Sudeste 0 -- -- 99
2019-09-27 03:00:00 16.7 7 Sur 14 Sur 0 -- -- 98
2019-09-27 02:00:00 16.7 5 Sur 13 Sudeste 0 -- -- 97
2019-09-27 01:00:00 16.8 6 Sudeste 12 Sur 0 -- -- 96
2019-09-27 00:00:00 16.9 5 Sur 16 Sur 0 -- -- 95
2019-09-26 23:00:00 17 5 Sur 11 Sur 0 -- -- 94
2019-09-26 22:00:00 17 7 Sur 14 Sur 0 -- -- 93
2019-09-26 21:00:00 18 6 Sur 13 Sur 0 -- -- 87
2019-09-26 20:00:00 18.4 2 Oeste 19 Sudoeste 0 -- -- 84
2019-09-26 19:00:00 19.1 4 Sudoeste 15 Noroeste 0 -- -- 79
2019-09-26 18:00:00 19.7 6 Sudoeste 22 Sudoeste 0 -- -- 73
2019-09-26 17:00:00 20 5 Sudoeste 20 Sudoeste 0 -- -- 73
2019-09-26 16:00:00 20 3 Oeste 22 Noroeste 0 -- -- 75
2019-09-26 15:00:00 19.3 5 Noroeste 20 Noroeste 0 -- -- 78
2019-09-26 14:00:00 19.4 4 Oeste 19 Noroeste 0 -- -- 72
2019-09-26 13:00:00 19.8 3 Oeste 20 Sudoeste 0 -- -- 75
2019-09-26 12:00:00 20 5 Sudoeste 21 Sudoeste 0 -- -- 71
2019-09-26 11:00:00 18.3 3 Sudoeste 13 Sudoeste 0 -- -- 86
2019-09-26 10:00:00 16.6 5 Sur 11 Sudeste 0 -- -- 96
2019-09-26 09:00:00 16 5 Sudeste 11 Sudeste 0 -- -- 97
2019-09-26 08:00:00 16.1 5 Sur 10 Sur 0 -- -- 95
2019-09-26 07:00:00 16.7 3 Sur 10 Sur 0 -- -- 94
2019-09-26 06:00:00 16.8 3 Sudoeste 14 Sur 0 -- -- 94
2019-09-26 05:00:00 16.9 2 Sudoeste 10 Sur 0 -- -- 95
2019-09-26 04:00:00 16.5 3 Sudoeste 14 Sudoeste 0 -- -- 96
2019-09-26 03:00:00 16.4 3 Sur 12 Sudeste 0 -- -- 97
2019-09-26 02:00:00 16 5 Sur 15 Sur 0 -- -- 97
2019-09-26 01:00:00 16.2 5 Sudeste 11 Sudeste 0 -- -- 94
2019-09-26 00:00:00 16.4 4 Sur 17 Sur 0 -- -- 93
2019-09-25 23:00:00 16.7 3 Sur 14 Sudoeste 0 -- -- 91
2019-09-25 22:00:00 16.8 3 Sudoeste 15 Sur 0 -- -- 90
2019-09-25 21:00:00 17 3 Sudoeste 16 Sur 0 -- -- 87
2019-09-25 20:00:00 17.3 3 Oeste 12 Noroeste 0 -- -- 86
2019-09-25 19:00:00 18.1 3 Noroeste 25 Noroeste 0 -- -- 85
2019-09-25 18:00:00 18.4 3 Noroeste 25 Noroeste 0 -- -- 84
2019-09-25 17:00:00 19.2 3 Noroeste 18 Oeste 0 -- -- 79
2019-09-25 16:00:00 18.8 4 Noroeste 18 Oeste 0 -- -- 83
2019-09-25 15:00:00 19.4 3 Noroeste 22 Oeste 0 -- -- 80
2019-09-25 14:00:00 19 2 Noroeste 17 Oeste 0 -- -- 81
2019-09-25 13:00:00 18.4 3 Noroeste 18 Noroeste 0 -- -- 84
2019-09-25 12:00:00 17.5 2 Oeste 12 Noroeste 0 -- -- 91
2019-09-25 11:00:00 16.3 0 Calma 10 Noroeste 0 -- -- 98
2019-09-25 10:00:00 15.6 0 Calma 7 Oeste 0 -- -- 99
2019-09-25 09:00:00 15.2 0 Calma 5 Sudoeste 0 -- -- 100
2019-09-25 08:00:00 15.1 0 Calma 10 Oeste 0 -- -- 100
2019-09-25 07:00:00 15.3 0 Calma 8 Oeste 0 -- -- 100
2019-09-25 06:00:00 15 0 Calma 10 Sur 0.2 -- -- 99
2019-09-25 05:00:00 14.7 3 Sudeste 6 Sur 0 -- -- 99
2019-09-25 04:00:00 14.9 0 Calma 5 Sur 0 -- -- 99
2019-09-25 03:00:00 15.1 0 Calma 6 Sudoeste 0 -- -- 98
2019-09-25 02:00:00 14.9 0 Calma 4 Sudoeste 0 -- -- 98
2019-09-25 01:00:00 15.1 0 Calma 9 Noroeste 0 -- -- 97
2019-09-25 00:00:00 15.5 0 Calma 14 Oeste 0.6 -- -- 95
2019-09-24 23:00:00 15.5 2 Noroeste 10 Oeste 0 -- -- 94
2019-09-24 22:00:00 15.5 0 Calma 9 Oeste 0 -- -- 92
2019-09-24 21:00:00 15.9 0 Calma 8 Oeste 0 -- -- 88
2019-09-24 20:00:00 16.4 2 Oeste 11 Noroeste 0 -- -- 86
2019-09-24 19:00:00 17.1 3 Noroeste 13 Noroeste 0.2 -- -- 85
2019-09-24 18:00:00 17.5 3 Oeste 13 Noroeste 0 -- -- 83
2019-09-24 17:00:00 18.6 4 Noroeste 23 Oeste 0 -- -- 84
2019-09-24 16:00:00 19.3 6 Oeste 18 Noroeste 0 -- -- 85
2019-09-24 15:00:00 18.4 4 Oeste 20 Oeste 0 -- -- 90
2019-09-24 14:00:00 18 3 Noroeste 17 Oeste 0 -- -- 98
2019-09-24 13:00:00 17.8 3 Noroeste 14 Sudoeste 0 -- -- 100
2019-09-24 12:00:00 17.5 3 Noroeste 14 Oeste 0 -- -- 100
2019-09-24 11:00:00 17.4 2 Noroeste 12 Oeste 0 -- -- 100
2019-09-24 10:00:00 17 2 Oeste 10 Noroeste 0 -- -- 100
2019-09-24 09:00:00 17 2 Noroeste 9 Noroeste 0 -- -- 100
2019-09-24 08:00:00 17.1 0 Calma 15 Oeste 0 -- -- 100
2019-09-24 07:00:00 17.4 3 Noroeste 21 Noroeste 0 -- -- 100
2019-09-24 06:00:00 18.2 6 Noroeste 26 Oeste 0 -- -- 100
2019-09-24 05:00:00 18.4 6 Oeste 42 Oeste 1.8 -- -- 99
2019-09-24 04:00:00 17.9 7 Oeste 44 Sudoeste 3.4 -- -- 98
2019-09-24 03:00:00 17.5 12 Sur 41 Sur 3.4 -- -- 98
2019-09-24 02:00:00 17.3 17 Sur 45 Sur 5 -- -- 98
2019-09-24 01:00:00 17.3 19 Sur 46 Sur 0.6 -- -- 99
2019-09-24 00:00:00 17.2 19 Sur 49 Sur 0.4 -- -- 99
2019-09-23 23:00:00 17 17 Sur 50 Sur 1.2 -- -- 99
2019-09-23 22:00:00 16.7 17 Sur 51 Sudeste 0.6 -- -- 99
2019-09-23 21:00:00 16.6 13 Sur 44 Sur 0.6 -- -- 99
2019-09-23 20:00:00 16.5 15 Sur 45 Sur 0.8 -- -- 99
2019-09-23 19:00:00 16.5 15 Sur 45 Sur 0.8 -- -- 98
2019-09-23 18:00:00 16.2 12 Sur 38 Sur 0.6 -- -- 99
2019-09-23 17:00:00 16.2 12 Sur 37 Sur 2.2 -- -- 98
2019-09-23 16:00:00 16.2 12 Sur 35 Sudeste 1 -- -- 98
2019-09-23 15:00:00 16.1 9 Sudoeste 29 Sur 1.2 -- -- 97
2019-09-23 14:00:00 16.1 10 Sur 42 Sur 0.6 -- -- 95
2019-09-23 13:00:00 16.4 17 Sur 38 Sur 0.2 -- -- 93
2019-09-23 12:00:00 17.1 12 Sur 36 Sur 0 -- -- 88
2019-09-23 11:00:00 17.1 17 Sur 40 Sur 0 -- -- 87
2019-09-23 10:00:00 16.3 13 Sur 36 Sur 0 -- -- 89
2019-09-23 09:00:00 16.1 8 Sur 25 Sur 0 -- -- 90
2019-09-23 08:00:00 15.8 10 Sur 24 Sur 0 -- -- 91
2019-09-23 07:00:00 15.7 10 Sur 27 Sur 0 -- -- 92
2019-09-23 06:00:00 15.6 7 Sur 19 Sur 0 -- -- 94
2019-09-23 05:00:00 15.7 5 Sur 16 Sur 0 -- -- 94
2019-09-23 04:00:00 15.6 6 Sur 14 Sur 0 -- -- 94
2019-09-23 03:00:00 15.4 5 Sur 15 Sur 0 -- -- 93
2019-09-23 02:00:00 14.8 6 Sur 13 Sur 0 -- -- 96
2019-09-23 01:00:00 14.9 5 Sur 13 Sur 0 -- -- 96
2019-09-23 00:00:00 15.2 5 Sudeste 11 Sur 0 -- -- 95
2019-09-22 23:00:00 15.6 5 Sur 15 Sur 0 -- -- 92
2019-09-22 22:00:00 15.9 5 Sur 16 Sudoeste 0 -- -- 90
2019-09-22 21:00:00 16.6 2 Sur 13 Sudeste 0 -- -- 89
2019-09-22 20:00:00 17.2 2 Sudoeste 14 Sudoeste 0 -- -- 84
2019-09-22 19:00:00 17.7 3 Noroeste 17 Noroeste 0 -- -- 84
2019-09-22 18:00:00 18.5 4 Noroeste 23 Oeste 0 -- -- 81
2019-09-22 17:00:00 19.5 5 Oeste 22 Noroeste 0 -- -- 79
2019-09-22 16:00:00 19.9 5 Noroeste 26 Oeste 0 -- -- 80
2019-09-22 15:00:00 18.6 4 Noroeste 23 Oeste 0 -- -- 84
2019-09-22 14:00:00 17.9 4 Noroeste 17 Oeste 0 -- -- 85
2019-09-22 13:00:00 17.8 4 Noroeste 16 Oeste 0 -- -- 86
2019-09-22 12:00:00 17.4 5 Noroeste 21 Sudoeste 0 -- -- 87
2019-09-22 11:00:00 17 3 Oeste 18 Oeste 0 -- -- 90
2019-09-22 10:00:00 15.7 5 Sur 16 Oeste 0 -- -- 96
2019-09-22 09:00:00 15.1 3 Sudoeste 18 Sudoeste 0 -- -- 96
2019-09-22 08:00:00 14.7 2 Oeste 12 Sudoeste 0 -- -- 97
2019-09-22 07:00:00 14.7 3 Oeste 21 Sudoeste 2.8 -- -- 96
2019-09-22 06:00:00 14.7 3 Oeste 26 Noroeste 0.4 -- -- 89
2019-09-22 05:00:00 15.4 7 Sudoeste 22 Sudoeste 0.2 -- -- 85
2019-09-22 04:00:00 15 4 Sudoeste 21 Sur 0 -- -- 87
2019-09-22 03:00:00 15.3 6 Sudoeste 21 Sur 0 -- -- 87
2019-09-22 02:00:00 15.4 4 Sudoeste 22 Sudoeste 0 -- -- 88
2019-09-22 01:00:00 15.5 4 Oeste 28 Oeste 0 -- -- 91
2019-09-22 00:00:00 16.3 6 Oeste 31 Sudoeste 0 -- -- 92
2019-09-21 23:00:00 16.7 8 Sudoeste 31 Sur 0.8 -- -- 91
2019-09-21 22:00:00 16.7 7 Sudoeste 25 Sur 0 -- -- 89
2019-09-21 21:00:00 16.4 9 Sur 28 Sur 0 -- -- 87
2019-09-21 20:00:00 17.5 7 Sudoeste 24 Sudoeste 0 -- -- 88
2019-09-21 19:00:00 17.7 5 Sudoeste 27 Sur 0 -- -- 86
2019-09-21 18:00:00 18 4 Oeste 17 Oeste 0 -- -- 93
2019-09-21 17:00:00 17.5 2 Noroeste 11 Noroeste 0 -- -- 97
2019-09-21 16:00:00 16.4 0 Calma 12 Sudoeste 0.4 -- -- 99
2019-09-21 15:00:00 16.8 2 Noroeste 33 Sur 0 -- -- 98
2019-09-21 14:00:00 17.1 10 Sur 35 Sudeste 0.8 -- -- 98
2019-09-21 13:00:00 16.6 11 Sur 50 Sur 2 -- -- 99
2019-09-21 12:00:00 16.9 18 Sur 45 Sur 1.4 -- -- 99
2019-09-21 11:00:00 16.9 4 Sudoeste 29 Sur 1.4 -- -- 99
2019-09-21 10:00:00 16.9 9 Sur 33 Sur 1 -- -- 100
2019-09-21 09:00:00 16.8 11 Sur 32 Sudeste 1.4 -- -- 100
2019-09-21 08:00:00 16.3 5 Sur 19 Sudeste 1.8 -- -- 99
2019-09-21 07:00:00 16.1 11 Sudeste 21 Sur 1 -- -- 97
2019-09-21 06:00:00 16.3 4 Sudeste 14 Sudeste 0 -- -- 94
2019-09-21 05:00:00 16.4 4 Sudeste 18 Sur 0 -- -- 92
2019-09-21 04:00:00 16.5 9 Sur 19 Sudeste 0 -- -- 91
2019-09-21 03:00:00 16.2 6 Sudeste 13 Sur 0 -- -- 94
2019-09-21 02:00:00 15.6 0 Calma 8 Sur 0 -- -- 96
2019-09-21 01:00:00 15.4 4 Sudeste 9 Sur 0 -- -- 96
2019-09-21 00:00:00 15.7 6 Sudeste 17 Sudeste 0 -- -- 95
2019-09-20 23:00:00 16.1 6 Sudeste 14 Sudeste 0 -- -- 93
2019-09-20 22:00:00 16.3 5 Sudeste 15 Sudeste 0 -- -- 93
2019-09-20 21:00:00 16.7 6 Sudeste 18 Sur 0 -- -- 92
2019-09-20 20:00:00 17.6 6 Sudeste 14 Sudeste 0 -- -- 88
2019-09-20 19:00:00 18.4 3 Noroeste 14 Noroeste 0 -- -- 86
2019-09-20 18:00:00 18.3 4 Noroeste 15 Sudoeste 0 -- -- 86
2019-09-20 17:00:00 18.4 4 Sur 17 Sur 0 -- -- 87
2019-09-20 16:00:00 17.7 3 Noroeste 19 Sur 0 -- -- 90
2019-09-20 15:00:00 17.2 9 Sur 23 Sur 0 -- -- 90
2019-09-20 14:00:00 17 7 Sur 19 Sur 0 -- -- 92
2019-09-20 13:00:00 16.4 3 Sur 10 Sudeste 0 -- -- 94
2019-09-20 12:00:00 16 2 Sudoeste 15 Sur 0 -- -- 96
2019-09-20 11:00:00 15.6 4 Sudeste 13 Sur 0 -- -- 99
2019-09-20 10:00:00 15.3 4 Sur 11 Sudeste 0 -- -- 100
2019-09-20 09:00:00 14.9 5 Sudeste 9 Sudeste 0.2 -- -- 100
2019-09-20 08:00:00 14.8 3 Sudeste 6 Sur 0 -- -- 100
2019-09-20 07:00:00 -- 0 Calma 9 Sudeste 0 -- -- --
2019-09-20 06:00:00 14.7 4 Sur 9 Sudoeste 0 -- -- 100
2019-09-20 05:00:00 14.8 3 Sur 9 Sudeste 0 -- -- 100
2019-09-20 04:00:00 15 0 Calma 5 Sur 0 -- -- 100
2019-09-20 03:00:00 15 0 Calma 3 Oeste 0 -- -- 99
2019-09-20 02:00:00 15.1 0 Calma 8 Sur 0 -- -- 99
2019-09-20 01:00:00 15.1 2 Sur 5 Sur 0 -- -- 99
2019-09-20 00:00:00 15.1 0 Calma 4 Sur 0 -- -- 99
2019-09-19 23:00:00 15.2 0 Calma 4 Sudeste 0 -- -- 98
2019-09-19 22:00:00 15 0 Calma 4 Noroeste 0 -- -- 98
2019-09-19 21:00:00 15.1 0 Calma 9 Oeste 0 -- -- 97
2019-09-19 20:00:00 15.4 0 Calma 13 Noroeste 0 -- -- 95
2019-09-19 19:00:00 15.9 2 Noroeste 13 Oeste 0 -- -- 93
2019-09-19 18:00:00 16.5 4 Noroeste 17 Oeste 0 -- -- 90
2019-09-19 17:00:00 18 4 Noroeste 16 Noroeste 0 -- -- 85
2019-09-19 16:00:00 19.4 4 Oeste 13 Noroeste 0 -- -- 83
2019-09-19 15:00:00 18.3 2 Noroeste 9 Oeste 0 -- -- 91
2019-09-19 14:00:00 16.3 2 Noroeste 9 Oeste 0 -- -- 98
2019-09-19 13:00:00 15.7 0 Calma 9 Oeste 0 -- -- 100
2019-09-19 12:00:00 15.4 0 Calma 9 Oeste 0 -- -- 100
2019-09-19 11:00:00 15.2 0 Calma 6 Oeste 0 -- -- 100
2019-09-19 10:00:00 14.5 0 Calma 7 Sudeste 0 -- -- 100
2019-09-19 09:00:00 13.9 3 Sudeste 6 Sudeste 0 -- -- 100
2019-09-19 08:00:00 13.9 0 Calma 4 Sudeste 0 -- -- 99
2019-09-19 07:00:00 14.1 0 Calma 4 Sur 0 -- -- 99
2019-09-19 06:00:00 14.2 0 Calma 3 Oeste 0 -- -- 99
2019-09-19 05:00:00 14.3 0 Calma 7 Noroeste 0 -- -- 98
2019-09-19 04:00:00 14.9 0 Calma 8 Norte 0 -- -- 95
2019-09-19 03:00:00 16 4 Nordeste 9 Nordeste 0 -- -- 99
2019-09-19 02:00:00 14.1 0 Calma 3 Sudeste 0 -- -- 97
2019-09-19 01:00:00 14.5 0 Calma 2 Sudeste 0 -- -- 97
2019-09-19 00:00:00 14.9 0 Calma 3 Noroeste 0 -- -- 96
2019-09-18 23:00:00 15.6 0 Calma 4 Sudeste 0 -- -- 93
2019-09-18 22:00:00 16 2 Sudeste 4 Sudeste 0 -- -- 94
2019-09-18 21:00:00 16 0 Calma 5 Noroeste 0 -- -- 94
2019-09-18 20:00:00 16.1 2 Noroeste 9 Noroeste 0 -- -- 93
2019-09-18 19:00:00 16.9 2 Noroeste 7 Oeste 0 -- -- 90
2019-09-18 18:00:00 17 3 Noroeste 12 Oeste 0 -- -- 89
2019-09-18 17:00:00 18.3 3 Noroeste 14 Noroeste 0 -- -- 82
2019-09-18 16:00:00 20.3 3 Noroeste 8 Oeste 0 -- -- 76
2019-09-18 15:00:00 21.3 3 Noroeste 9 Oeste 0 -- -- 75
2019-09-18 14:00:00 20.3 3 Noroeste 8 Oeste 0 -- -- 80
2019-09-18 13:00:00 20.4 3 Noroeste 10 Noroeste 0 -- -- 77
2019-09-18 12:00:00 19.8 0 Calma 4 Noroeste 0 -- -- 88
2019-09-18 11:00:00 17.8 0 Calma 5 Sudeste 0 -- -- 95
2019-09-18 10:00:00 15.8 0 Calma 3 Noroeste 0 -- -- 98
2019-09-18 09:00:00 15.3 0 Calma 4 Norte 0 -- -- 97
2019-09-18 08:00:00 15.8 0 Calma 4 Este 0 -- -- 97
2019-09-18 07:00:00 16.1 0 Calma 5 Norte 0 -- -- 97
2019-09-18 06:00:00 15.9 3 Sudeste 8 Sur 0 -- -- 96
2019-09-18 05:00:00 16.3 3 Nordeste 8 Sudeste 0 -- -- 97
2019-09-18 04:00:00 16.7 3 Sudeste 5 Sudeste 0 -- -- 96
2019-09-18 03:00:00 17 0 Calma 3 Norte 0 -- -- 96
2019-09-18 02:00:00 17 0 Calma 8 Noroeste 0 -- -- 95
2019-09-18 01:00:00 18.1 0 Calma 8 Nordeste 0 -- -- 91
2019-09-18 00:00:00 19.1 4 Sudeste 9 Nordeste 0 -- -- 88
2019-09-17 23:00:00 19.6 0 Calma 9 Nordeste 0 -- -- 88
2019-09-17 22:00:00 19.3 0 Calma 6 Nordeste 0 -- -- 90
2019-09-17 21:00:00 19.8 0 Calma 4 Nordeste 0 -- -- 88